sensor_id;sensor_type;location;lat;lon;timestamp;P1;durP1;ratioP1;P2;durP2;ratioP2
57307;SDS011;43152;50.968;18.214;2022-09-13T00:00:40;12.00;;;6.10;;
57307;SDS011;43152;50.968;18.214;2022-09-13T00:03:07;12.30;;;6.00;;
57307;SDS011;43152;50.968;18.214;2022-09-13T00:05:34;16.00;;;6.30;;
57307;SDS011;43152;50.968;18.214;2022-09-13T00:08:00;13.80;;;6.50;;
57307;SDS011;43152;50.968;18.214;2022-09-13T00:10:26;11.80;;;5.90;;
57307;SDS011;43152;50.968;18.214;2022-09-13T00:12:52;12.50;;;6.60;;
57307;SDS011;43152;50.968;18.214;2022-09-13T00:15:18;13.30;;;6.30;;
57307;SDS011;43152;50.968;18.214;2022-09-13T00:17:44;12.80;;;5.80;;
57307;SDS011;43152;50.968;18.214;2022-09-13T00:20:09;12.60;;;6.40;;
57307;SDS011;43152;50.968;18.214;2022-09-13T00:22:35;13.60;;;6.20;;
57307;SDS011;43152;50.968;18.214;2022-09-13T00:25:05;12.40;;;5.70;;
57307;SDS011;43152;50.968;18.214;2022-09-13T00:27:32;12.60;;;5.90;;
57307;SDS011;43152;50.968;18.214;2022-09-13T00:29:58;11.60;;;5.60;;
57307;SDS011;43152;50.968;18.214;2022-09-13T00:32:24;10.80;;;5.90;;
57307;SDS011;43152;50.968;18.214;2022-09-13T00:34:50;14.00;;;6.30;;
57307;SDS011;43152;50.968;18.214;2022-09-13T00:37:16;13.90;;;6.70;;
57307;SDS011;43152;50.968;18.214;2022-09-13T00:39:41;13.10;;;6.30;;
57307;SDS011;43152;50.968;18.214;2022-09-13T00:42:13;12.80;;;6.10;;
57307;SDS011;43152;50.968;18.214;2022-09-13T00:44:52;17.00;;;6.10;;
57307;SDS011;43152;50.968;18.214;2022-09-13T00:47:27;12.70;;;5.90;;
57307;SDS011;43152;50.968;18.214;2022-09-13T00:53:02;14.40;;;6.80;;
57307;SDS011;43152;50.968;18.214;2022-09-13T00:55:36;12.70;;;6.70;;
57307;SDS011;43152;50.968;18.214;2022-09-13T00:58:05;11.20;;;6.50;;
57307;SDS011;43152;50.968;18.214;2022-09-13T01:00:34;13.00;;;6.30;;
57307;SDS011;43152;50.968;18.214;2022-09-13T01:03:01;11.40;;;5.90;;
57307;SDS011;43152;50.968;18.214;2022-09-13T01:05:31;15.30;;;7.00;;
57307;SDS011;43152;50.968;18.214;2022-09-13T01:08:03;12.60;;;6.50;;
57307;SDS011;43152;50.968;18.214;2022-09-13T01:10:40;14.80;;;6.70;;
57307;SDS011;43152;50.968;18.214;2022-09-13T01:13:12;16.10;;;6.80;;
57307;SDS011;43152;50.968;18.214;2022-09-13T01:15:41;12.50;;;7.00;;
57307;SDS011;43152;50.968;18.214;2022-09-13T01:18:07;13.80;;;6.90;;
57307;SDS011;43152;50.968;18.214;2022-09-13T01:40:23;16.50;;;9.00;;
57307;SDS011;43152;50.968;18.214;2022-09-13T01:48:54;17.40;;;9.80;;
57307;SDS011;43152;50.968;18.214;2022-09-13T01:51:25;18.10;;;10.00;;
57307;SDS011;43152;50.968;18.214;2022-09-13T02:04:42;18.20;;;10.30;;
57307;SDS011;43152;50.968;18.214;2022-09-13T02:07:12;15.50;;;9.80;;
57307;SDS011;43152;50.968;18.214;2022-09-13T02:09:43;15.60;;;9.90;;
57307;SDS011;43152;50.968;18.214;2022-09-13T02:12:30;18.00;;;9.70;;
57307;SDS011;43152;50.968;18.214;2022-09-13T02:15:08;15.10;;;9.30;;
57307;SDS011;43152;50.968;18.214;2022-09-13T02:17:38;15.40;;;8.60;;
57307;SDS011;43152;50.968;18.214;2022-09-13T02:20:27;17.40;;;9.90;;
57307;SDS011;43152;50.968;18.214;2022-09-13T02:22:59;17.70;;;9.30;;
57307;SDS011;43152;50.968;18.214;2022-09-13T02:25:27;14.90;;;9.40;;
57307;SDS011;43152;50.968;18.214;2022-09-13T02:27:57;15.70;;;8.90;;
57307;SDS011;43152;50.968;18.214;2022-09-13T02:30:26;15.50;;;9.10;;
57307;SDS011;43152;50.968;18.214;2022-09-13T02:32:54;16.10;;;8.90;;
57307;SDS011;43152;50.968;18.214;2022-09-13T02:35:26;16.00;;;8.40;;
57307;SDS011;43152;50.968;18.214;2022-09-13T02:37:59;15.40;;;9.50;;
57307;SDS011;43152;50.968;18.214;2022-09-13T02:40:38;18.80;;;10.10;;
57307;SDS011;43152;50.968;18.214;2022-09-13T02:43:09;20.40;;;10.70;;
57307;SDS011;43152;50.968;18.214;2022-09-13T02:45:57;20.30;;;10.80;;
57307;SDS011;43152;50.968;18.214;2022-09-13T02:51:29;18.90;;;10.80;;
57307;SDS011;43152;50.968;18.214;2022-09-13T02:54:32;16.70;;;10.10;;
57307;SDS011;43152;50.968;18.214;2022-09-13T02:56:57;16.90;;;10.40;;
57307;SDS011;43152;50.968;18.214;2022-09-13T02:59:25;17.30;;;10.40;;
57307;SDS011;43152;50.968;18.214;2022-09-13T03:02:00;19.30;;;10.70;;
57307;SDS011;43152;50.968;18.214;2022-09-13T03:04:28;17.90;;;10.70;;
57307;SDS011;43152;50.968;18.214;2022-09-13T03:06:54;18.60;;;10.70;;
57307;SDS011;43152;50.968;18.214;2022-09-13T03:09:20;16.00;;;10.00;;
57307;SDS011;43152;50.968;18.214;2022-09-13T03:14:42;16.20;;;9.60;;
57307;SDS011;43152;50.968;18.214;2022-09-13T03:17:38;15.20;;;9.20;;
57307;SDS011;43152;50.968;18.214;2022-09-13T03:20:11;17.50;;;10.10;;
57307;SDS011;43152;50.968;18.214;2022-09-13T03:28:38;16.20;;;9.00;;
57307;SDS011;43152;50.968;18.214;2022-09-13T03:31:20;18.00;;;9.70;;
57307;SDS011;43152;50.968;18.214;2022-09-13T03:37:07;17.00;;;9.10;;
57307;SDS011;43152;50.968;18.214;2022-09-13T03:40:04;17.10;;;9.50;;
57307;SDS011;43152;50.968;18.214;2022-09-13T03:42:35;25.30;;;15.80;;
57307;SDS011;43152;50.968;18.214;2022-09-13T03:45:04;26.20;;;14.60;;
57307;SDS011;43152;50.968;18.214;2022-09-13T03:47:33;19.40;;;10.80;;
57307;SDS011;43152;50.968;18.214;2022-09-13T03:50:01;24.30;;;11.10;;
57307;SDS011;43152;50.968;18.214;2022-09-13T03:52:28;18.50;;;10.20;;
57307;SDS011;43152;50.968;18.214;2022-09-13T03:54:54;17.80;;;10.20;;
57307;SDS011;43152;50.968;18.214;2022-09-13T03:57:20;17.40;;;9.50;;
57307;SDS011;43152;50.968;18.214;2022-09-13T03:59:47;15.20;;;9.30;;
57307;SDS011;43152;50.968;18.214;2022-09-13T04:02:18;16.00;;;9.50;;
57307;SDS011;43152;50.968;18.214;2022-09-13T04:04:45;15.00;;;8.70;;
57307;SDS011;43152;50.968;18.214;2022-09-13T04:07:14;15.80;;;9.80;;
57307;SDS011;43152;50.968;18.214;2022-09-13T04:09:41;17.50;;;9.40;;
57307;SDS011;43152;50.968;18.214;2022-09-13T04:12:07;16.00;;;9.10;;
57307;SDS011;43152;50.968;18.214;2022-09-13T04:14:35;14.10;;;8.70;;
57307;SDS011;43152;50.968;18.214;2022-09-13T04:17:02;14.80;;;8.40;;
57307;SDS011;43152;50.968;18.214;2022-09-13T04:19:28;15.50;;;9.00;;
57307;SDS011;43152;50.968;18.214;2022-09-13T04:21:54;13.60;;;8.60;;
57307;SDS011;43152;50.968;18.214;2022-09-13T04:24:23;13.10;;;8.30;;
57307;SDS011;43152;50.968;18.214;2022-09-13T04:26:52;13.80;;;8.30;;
57307;SDS011;43152;50.968;18.214;2022-09-13T04:29:19;16.50;;;8.50;;
57307;SDS011;43152;50.968;18.214;2022-09-13T04:31:47;13.80;;;8.80;;
57307;SDS011;43152;50.968;18.214;2022-09-13T04:34:13;14.40;;;9.10;;
57307;SDS011;43152;50.968;18.214;2022-09-13T04:36:39;16.30;;;9.30;;
57307;SDS011;43152;50.968;18.214;2022-09-13T04:39:04;13.70;;;9.20;;
57307;SDS011;43152;50.968;18.214;2022-09-13T04:41:31;14.60;;;9.50;;
57307;SDS011;43152;50.968;18.214;2022-09-13T04:43:57;15.70;;;9.80;;
57307;SDS011;43152;50.968;18.214;2022-09-13T04:46:23;16.00;;;9.60;;
57307;SDS011;43152;50.968;18.214;2022-09-13T04:48:49;14.40;;;9.90;;
57307;SDS011;43152;50.968;18.214;2022-09-13T04:51:15;17.10;;;10.10;;
57307;SDS011;43152;50.968;18.214;2022-09-13T04:53:42;36.20;;;18.90;;
57307;SDS011;43152;50.968;18.214;2022-09-13T04:56:09;77.70;;;41.70;;
57307;SDS011;43152;50.968;18.214;2022-09-13T04:58:35;64.90;;;35.30;;
57307;SDS011;43152;50.968;18.214;2022-09-13T05:01:01;52.80;;;31.20;;
57307;SDS011;43152;50.968;18.214;2022-09-13T05:03:29;42.60;;;27.80;;
57307;SDS011;43152;50.968;18.214;2022-09-13T05:06:00;35.60;;;21.50;;
57307;SDS011;43152;50.968;18.214;2022-09-13T05:08:27;27.00;;;15.40;;
57307;SDS011;43152;50.968;18.214;2022-09-13T05:10:52;21.40;;;12.60;;
57307;SDS011;43152;50.968;18.214;2022-09-13T05:13:18;19.80;;;10.90;;
57307;SDS011;43152;50.968;18.214;2022-09-13T05:15:44;21.10;;;12.30;;
57307;SDS011;43152;50.968;18.214;2022-09-13T05:18:09;19.50;;;11.00;;
57307;SDS011;43152;50.968;18.214;2022-09-13T05:20:35;20.50;;;11.00;;
57307;SDS011;43152;50.968;18.214;2022-09-13T05:23:00;24.20;;;12.90;;
57307;SDS011;43152;50.968;18.214;2022-09-13T05:25:26;26.30;;;12.90;;
57307;SDS011;43152;50.968;18.214;2022-09-13T05:27:51;23.50;;;12.30;;
57307;SDS011;43152;50.968;18.214;2022-09-13T05:30:17;19.50;;;10.30;;
57307;SDS011;43152;50.968;18.214;2022-09-13T05:32:43;15.00;;;8.70;;
57307;SDS011;43152;50.968;18.214;2022-09-13T05:35:08;14.20;;;7.80;;
57307;SDS011;43152;50.968;18.214;2022-09-13T05:37:34;16.20;;;8.60;;
57307;SDS011;43152;50.968;18.214;2022-09-13T05:39:59;18.20;;;9.00;;
57307;SDS011;43152;50.968;18.214;2022-09-13T05:42:25;20.30;;;8.90;;
57307;SDS011;43152;50.968;18.214;2022-09-13T05:44:51;13.40;;;6.80;;
57307;SDS011;43152;50.968;18.214;2022-09-13T05:47:17;14.80;;;7.00;;
57307;SDS011;43152;50.968;18.214;2022-09-13T05:49:42;12.90;;;6.50;;
57307;SDS011;43152;50.968;18.214;2022-09-13T05:52:08;14.60;;;6.80;;
57307;SDS011;43152;50.968;18.214;2022-09-13T05:54:33;12.60;;;6.10;;
57307;SDS011;43152;50.968;18.214;2022-09-13T05:56:59;11.60;;;6.50;;
57307;SDS011;43152;50.968;18.214;2022-09-13T05:59:25;14.00;;;7.00;;
57307;SDS011;43152;50.968;18.214;2022-09-13T06:01:50;17.50;;;7.20;;
57307;SDS011;43152;50.968;18.214;2022-09-13T06:04:16;13.90;;;6.40;;
57307;SDS011;43152;50.968;18.214;2022-09-13T06:06:43;13.60;;;6.70;;
57307;SDS011;43152;50.968;18.214;2022-09-13T06:09:09;12.30;;;5.60;;
57307;SDS011;43152;50.968;18.214;2022-09-13T06:11:35;11.80;;;5.40;;
57307;SDS011;43152;50.968;18.214;2022-09-13T06:14:01;12.20;;;5.20;;
57307;SDS011;43152;50.968;18.214;2022-09-13T06:16:26;10.60;;;5.10;;
57307;SDS011;43152;50.968;18.214;2022-09-13T06:18:52;9.70;;;5.10;;
57307;SDS011;43152;50.968;18.214;2022-09-13T06:21:19;12.00;;;5.40;;
57307;SDS011;43152;50.968;18.214;2022-09-13T06:23:46;13.40;;;5.30;;
57307;SDS011;43152;50.968;18.214;2022-09-13T06:26:14;10.50;;;5.40;;
57307;SDS011;43152;50.968;18.214;2022-09-13T06:28:41;11.50;;;6.00;;
57307;SDS011;43152;50.968;18.214;2022-09-13T06:31:08;13.20;;;7.20;;
57307;SDS011;43152;50.968;18.214;2022-09-13T06:33:36;12.80;;;7.00;;
57307;SDS011;43152;50.968;18.214;2022-09-13T06:36:03;13.40;;;7.50;;
57307;SDS011;43152;50.968;18.214;2022-09-13T06:38:30;12.90;;;7.30;;
57307;SDS011;43152;50.968;18.214;2022-09-13T06:41:00;11.60;;;6.80;;
57307;SDS011;43152;50.968;18.214;2022-09-13T06:43:34;13.70;;;7.10;;
57307;SDS011;43152;50.968;18.214;2022-09-13T06:46:04;12.00;;;7.20;;
57307;SDS011;43152;50.968;18.214;2022-09-13T06:48:34;14.00;;;7.20;;
57307;SDS011;43152;50.968;18.214;2022-09-13T06:51:04;13.00;;;7.50;;
57307;SDS011;43152;50.968;18.214;2022-09-13T06:53:32;13.00;;;6.80;;
57307;SDS011;43152;50.968;18.214;2022-09-13T06:56:21;12.80;;;6.50;;
57307;SDS011;43152;50.968;18.214;2022-09-13T06:58:49;12.90;;;6.70;;
57307;SDS011;43152;50.968;18.214;2022-09-13T07:01:17;11.40;;;6.10;;
57307;SDS011;43152;50.968;18.214;2022-09-13T07:03:48;13.00;;;5.90;;
57307;SDS011;43152;50.968;18.214;2022-09-13T07:08:42;12.30;;;6.30;;
57307;SDS011;43152;50.968;18.214;2022-09-13T07:11:09;11.40;;;6.00;;
57307;SDS011;43152;50.968;18.214;2022-09-13T07:13:36;10.30;;;5.60;;
57307;SDS011;43152;50.968;18.214;2022-09-13T07:16:03;10.50;;;5.60;;
57307;SDS011;43152;50.968;18.214;2022-09-13T07:18:34;11.20;;;5.80;;
57307;SDS011;43152;50.968;18.214;2022-09-13T07:21:01;13.00;;;6.40;;
57307;SDS011;43152;50.968;18.214;2022-09-13T07:23:31;12.20;;;6.00;;
57307;SDS011;43152;50.968;18.214;2022-09-13T07:25:58;10.40;;;5.10;;
57307;SDS011;43152;50.968;18.214;2022-09-13T07:28:29;10.70;;;5.10;;
57307;SDS011;43152;50.968;18.214;2022-09-13T07:33:31;10.50;;;5.10;;
57307;SDS011;43152;50.968;18.214;2022-09-13T07:35:57;10.00;;;5.20;;
57307;SDS011;43152;50.968;18.214;2022-09-13T07:38:25;9.80;;;4.90;;
57307;SDS011;43152;50.968;18.214;2022-09-13T07:40:54;11.30;;;4.90;;
57307;SDS011;43152;50.968;18.214;2022-09-13T07:43:22;10.40;;;5.10;;
57307;SDS011;43152;50.968;18.214;2022-09-13T07:45:56;12.40;;;5.50;;
57307;SDS011;43152;50.968;18.214;2022-09-13T07:48:22;12.70;;;5.20;;
57307;SDS011;43152;50.968;18.214;2022-09-13T07:50:58;9.50;;;5.10;;
57307;SDS011;43152;50.968;18.214;2022-09-13T07:53:41;10.10;;;4.40;;
57307;SDS011;43152;50.968;18.214;2022-09-13T07:56:09;9.60;;;4.50;;
57307;SDS011;43152;50.968;18.214;2022-09-13T07:58:39;8.30;;;4.00;;
57307;SDS011;43152;50.968;18.214;2022-09-13T08:01:07;10.50;;;4.30;;
57307;SDS011;43152;50.968;18.214;2022-09-13T08:03:55;9.30;;;3.90;;
57307;SDS011;43152;50.968;18.214;2022-09-13T08:06:23;9.40;;;3.80;;
57307;SDS011;43152;50.968;18.214;2022-09-13T08:08:49;7.60;;;3.40;;
57307;SDS011;43152;50.968;18.214;2022-09-13T08:11:19;8.50;;;3.30;;
57307;SDS011;43152;50.968;18.214;2022-09-13T08:13:45;10.30;;;3.80;;
57307;SDS011;43152;50.968;18.214;2022-09-13T08:16:12;8.80;;;3.50;;
57307;SDS011;43152;50.968;18.214;2022-09-13T08:18:45;8.10;;;3.30;;
57307;SDS011;43152;50.968;18.214;2022-09-13T08:23:38;8.10;;;3.40;;
57307;SDS011;43152;50.968;18.214;2022-09-13T08:26:06;9.50;;;3.10;;
57307;SDS011;43152;50.968;18.214;2022-09-13T08:28:40;9.40;;;3.40;;
57307;SDS011;43152;50.968;18.214;2022-09-13T08:31:11;8.10;;;3.50;;
57307;SDS011;43152;50.968;18.214;2022-09-13T08:33:45;6.50;;;2.90;;
57307;SDS011;43152;50.968;18.214;2022-09-13T08:36:15;8.30;;;2.60;;
57307;SDS011;43152;50.968;18.214;2022-09-13T08:38:47;8.00;;;2.70;;
57307;SDS011;43152;50.968;18.214;2022-09-13T08:44:05;5.70;;;2.30;;
57307;SDS011;43152;50.968;18.214;2022-09-13T08:46:36;8.40;;;2.50;;
57307;SDS011;43152;50.968;18.214;2022-09-13T08:49:05;6.00;;;2.30;;
57307;SDS011;43152;50.968;18.214;2022-09-13T08:54:09;6.60;;;2.30;;
57307;SDS011;43152;50.968;18.214;2022-09-13T09:02:09;7.40;;;2.70;;
57307;SDS011;43152;50.968;18.214;2022-09-13T09:04:43;8.60;;;3.00;;
57307;SDS011;43152;50.968;18.214;2022-09-13T09:07:29;8.40;;;3.00;;
57307;SDS011;43152;50.968;18.214;2022-09-13T09:10:02;8.10;;;2.90;;
57307;SDS011;43152;50.968;18.214;2022-09-13T09:15:13;7.60;;;3.20;;
57307;SDS011;43152;50.968;18.214;2022-09-13T09:20:20;8.50;;;3.30;;
57307;SDS011;43152;50.968;18.214;2022-09-13T09:22:49;6.40;;;2.70;;
57307;SDS011;43152;50.968;18.214;2022-09-13T09:25:16;7.80;;;2.70;;
57307;SDS011;43152;50.968;18.214;2022-09-13T09:27:41;9.60;;;2.30;;
57307;SDS011;43152;50.968;18.214;2022-09-13T09:30:10;7.40;;;2.50;;
57307;SDS011;43152;50.968;18.214;2022-09-13T09:32:54;8.70;;;2.60;;
57307;SDS011;43152;50.968;18.214;2022-09-13T09:38:27;7.50;;;2.60;;
57307;SDS011;43152;50.968;18.214;2022-09-13T09:41:24;6.00;;;2.30;;
57307;SDS011;43152;50.968;18.214;2022-09-13T09:44:01;7.00;;;2.70;;
57307;SDS011;43152;50.968;18.214;2022-09-13T09:46:41;7.40;;;2.80;;
57307;SDS011;43152;50.968;18.214;2022-09-13T09:49:18;10.20;;;2.40;;
57307;SDS011;43152;50.968;18.214;2022-09-13T09:52:08;7.10;;;1.70;;
57307;SDS011;43152;50.968;18.214;2022-09-13T09:58:12;5.90;;;2.10;;
57307;SDS011;43152;50.968;18.214;2022-09-13T10:00:57;7.80;;;2.20;;
57307;SDS011;43152;50.968;18.214;2022-09-13T10:03:26;6.60;;;2.20;;
57307;SDS011;43152;50.968;18.214;2022-09-13T10:06:06;6.40;;;2.10;;
57307;SDS011;43152;50.968;18.214;2022-09-13T10:08:34;7.60;;;2.20;;
57307;SDS011;43152;50.968;18.214;2022-09-13T10:11:02;13.70;;;2.50;;
57307;SDS011;43152;50.968;18.214;2022-09-13T10:13:28;12.50;;;2.50;;
57307;SDS011;43152;50.968;18.214;2022-09-13T10:15:55;7.00;;;2.00;;
57307;SDS011;43152;50.968;18.214;2022-09-13T10:18:23;6.00;;;1.90;;
57307;SDS011;43152;50.968;18.214;2022-09-13T10:24:14;5.30;;;1.70;;
57307;SDS011;43152;50.968;18.214;2022-09-13T10:26:40;10.90;;;1.90;;
57307;SDS011;43152;50.968;18.214;2022-09-13T10:29:07;6.30;;;1.80;;
57307;SDS011;43152;50.968;18.214;2022-09-13T10:31:44;4.70;;;1.60;;
57307;SDS011;43152;50.968;18.214;2022-09-13T10:34:18;5.80;;;1.70;;
57307;SDS011;43152;50.968;18.214;2022-09-13T10:36:52;5.20;;;1.70;;
57307;SDS011;43152;50.968;18.214;2022-09-13T10:39:38;7.20;;;1.70;;
57307;SDS011;43152;50.968;18.214;2022-09-13T10:42:19;5.10;;;1.70;;
57307;SDS011;43152;50.968;18.214;2022-09-13T10:47:25;7.20;;;2.10;;
57307;SDS011;43152;50.968;18.214;2022-09-13T10:49:57;6.90;;;2.10;;
57307;SDS011;43152;50.968;18.214;2022-09-13T10:52:47;6.00;;;1.80;;
57307;SDS011;43152;50.968;18.214;2022-09-13T10:57:45;7.30;;;2.20;;
57307;SDS011;43152;50.968;18.214;2022-09-13T11:00:12;7.60;;;2.10;;
57307;SDS011;43152;50.968;18.214;2022-09-13T11:02:53;7.40;;;2.40;;
57307;SDS011;43152;50.968;18.214;2022-09-13T11:13:54;6.00;;;2.20;;
57307;SDS011;43152;50.968;18.214;2022-09-13T11:16:47;7.50;;;2.30;;
57307;SDS011;43152;50.968;18.214;2022-09-13T11:25:22;7.40;;;2.40;;
57307;SDS011;43152;50.968;18.214;2022-09-13T11:30:36;7.40;;;2.00;;
57307;SDS011;43152;50.968;18.214;2022-09-13T11:42:10;5.70;;;1.80;;
57307;SDS011;43152;50.968;18.214;2022-09-13T11:45:31;6.70;;;2.20;;
57307;SDS011;43152;50.968;18.214;2022-09-13T11:48:08;5.40;;;2.10;;
57307;SDS011;43152;50.968;18.214;2022-09-13T11:53:55;5.70;;;1.90;;
57307;SDS011;43152;50.968;18.214;2022-09-13T11:56:30;7.20;;;2.10;;
57307;SDS011;43152;50.968;18.214;2022-09-13T11:59:07;8.70;;;2.00;;
57307;SDS011;43152;50.968;18.214;2022-09-13T12:01:41;7.40;;;2.10;;
57307;SDS011;43152;50.968;18.214;2022-09-13T12:04:28;8.00;;;2.30;;
57307;SDS011;43152;50.968;18.214;2022-09-13T12:06:59;7.70;;;2.60;;
57307;SDS011;43152;50.968;18.214;2022-09-13T12:09:33;8.80;;;2.30;;
57307;SDS011;43152;50.968;18.214;2022-09-13T12:12:04;7.20;;;2.40;;
57307;SDS011;43152;50.968;18.214;2022-09-13T12:23:14;5.90;;;2.00;;
57307;SDS011;43152;50.968;18.214;2022-09-13T12:25:49;6.40;;;2.40;;
57307;SDS011;43152;50.968;18.214;2022-09-13T12:28:38;6.60;;;2.10;;
57307;SDS011;43152;50.968;18.214;2022-09-13T12:31:11;9.20;;;2.10;;
57307;SDS011;43152;50.968;18.214;2022-09-13T12:33:40;6.70;;;2.00;;
57307;SDS011;43152;50.968;18.214;2022-09-13T12:36:15;4.00;;;1.50;;
57307;SDS011;43152;50.968;18.214;2022-09-13T12:47:29;7.10;;;1.80;;
57307;SDS011;43152;50.968;18.214;2022-09-13T12:52:39;5.90;;;2.00;;
57307;SDS011;43152;50.968;18.214;2022-09-13T13:01:16;7.50;;;1.80;;
57307;SDS011;43152;50.968;18.214;2022-09-13T13:03:47;6.30;;;1.90;;
57307;SDS011;43152;50.968;18.214;2022-09-13T13:06:23;8.00;;;1.80;;
57307;SDS011;43152;50.968;18.214;2022-09-13T13:08:52;5.50;;;1.60;;
57307;SDS011;43152;50.968;18.214;2022-09-13T13:11:24;6.20;;;1.50;;
57307;SDS011;43152;50.968;18.214;2022-09-13T13:13:58;4.70;;;1.40;;
57307;SDS011;43152;50.968;18.214;2022-09-13T13:16:28;5.10;;;1.70;;
57307;SDS011;43152;50.968;18.214;2022-09-13T13:18:59;5.10;;;1.70;;
57307;SDS011;43152;50.968;18.214;2022-09-13T13:26:46;4.50;;;1.70;;
57307;SDS011;43152;50.968;18.214;2022-09-13T13:34:28;4.30;;;1.70;;
57307;SDS011;43152;50.968;18.214;2022-09-13T13:37:03;5.90;;;1.80;;
57307;SDS011;43152;50.968;18.214;2022-09-13T13:41:55;4.70;;;1.50;;
57307;SDS011;43152;50.968;18.214;2022-09-13T13:57:19;5.30;;;1.50;;
57307;SDS011;43152;50.968;18.214;2022-09-13T13:59:51;5.00;;;1.60;;
57307;SDS011;43152;50.968;18.214;2022-09-13T14:19:41;4.90;;;1.70;;
57307;SDS011;43152;50.968;18.214;2022-09-13T14:22:14;4.40;;;1.50;;
57307;SDS011;43152;50.968;18.214;2022-09-13T14:24:46;4.20;;;1.80;;
57307;SDS011;43152;50.968;18.214;2022-09-13T14:27:21;4.10;;;1.70;;
57307;SDS011;43152;50.968;18.214;2022-09-13T14:29:56;4.10;;;1.60;;
57307;SDS011;43152;50.968;18.214;2022-09-13T14:32:27;4.50;;;1.80;;
57307;SDS011;43152;50.968;18.214;2022-09-13T14:34:55;5.10;;;1.70;;
57307;SDS011;43152;50.968;18.214;2022-09-13T14:37:30;5.70;;;2.00;;
57307;SDS011;43152;50.968;18.214;2022-09-13T14:40:17;5.40;;;1.90;;
57307;SDS011;43152;50.968;18.214;2022-09-13T14:42:47;4.80;;;1.60;;
57307;SDS011;43152;50.968;18.214;2022-09-13T14:45:18;4.80;;;2.00;;
57307;SDS011;43152;50.968;18.214;2022-09-13T14:47:51;5.20;;;2.00;;
57307;SDS011;43152;50.968;18.214;2022-09-13T14:50:26;4.60;;;1.90;;
57307;SDS011;43152;50.968;18.214;2022-09-13T14:52:57;4.80;;;1.90;;
57307;SDS011;43152;50.968;18.214;2022-09-13T14:55:29;6.50;;;2.10;;
57307;SDS011;43152;50.968;18.214;2022-09-13T14:57:58;8.20;;;2.00;;
57307;SDS011;43152;50.968;18.214;2022-09-13T15:00:30;7.30;;;2.40;;
57307;SDS011;43152;50.968;18.214;2022-09-13T15:03:00;8.10;;;2.00;;
57307;SDS011;43152;50.968;18.214;2022-09-13T15:05:32;8.70;;;2.30;;
57307;SDS011;43152;50.968;18.214;2022-09-13T15:07:58;5.90;;;2.10;;
57307;SDS011;43152;50.968;18.214;2022-09-13T15:10:26;6.70;;;2.10;;
57307;SDS011;43152;50.968;18.214;2022-09-13T15:17:57;6.30;;;2.20;;
57307;SDS011;43152;50.968;18.214;2022-09-13T15:20:25;4.80;;;2.00;;
57307;SDS011;43152;50.968;18.214;2022-09-13T15:22:55;8.90;;;2.10;;
57307;SDS011;43152;50.968;18.214;2022-09-13T15:27:49;5.30;;;1.80;;
57307;SDS011;43152;50.968;18.214;2022-09-13T15:30:18;5.70;;;2.00;;
57307;SDS011;43152;50.968;18.214;2022-09-13T15:35:35;8.00;;;2.20;;
57307;SDS011;43152;50.968;18.214;2022-09-13T15:40:59;9.10;;;2.20;;
57307;SDS011;43152;50.968;18.214;2022-09-13T15:43:26;6.30;;;2.50;;
57307;SDS011;43152;50.968;18.214;2022-09-13T15:45:56;8.10;;;2.30;;
57307;SDS011;43152;50.968;18.214;2022-09-13T15:48:29;7.60;;;2.20;;
57307;SDS011;43152;50.968;18.214;2022-09-13T15:51:03;6.70;;;2.50;;
57307;SDS011;43152;50.968;18.214;2022-09-13T15:53:32;6.00;;;2.40;;
57307;SDS011;43152;50.968;18.214;2022-09-13T15:55:59;6.70;;;2.30;;
57307;SDS011;43152;50.968;18.214;2022-09-13T15:58:26;6.80;;;2.40;;
57307;SDS011;43152;50.968;18.214;2022-09-13T16:00:51;6.00;;;2.60;;
57307;SDS011;43152;50.968;18.214;2022-09-13T16:03:17;6.00;;;2.50;;
57307;SDS011;43152;50.968;18.214;2022-09-13T16:05:42;7.50;;;2.70;;
57307;SDS011;43152;50.968;18.214;2022-09-13T16:08:09;8.00;;;2.90;;
57307;SDS011;43152;50.968;18.214;2022-09-13T16:10:36;6.60;;;2.90;;
57307;SDS011;43152;50.968;18.214;2022-09-13T16:13:01;6.40;;;2.50;;
57307;SDS011;43152;50.968;18.214;2022-09-13T16:15:27;7.20;;;2.90;;
57307;SDS011;43152;50.968;18.214;2022-09-13T16:17:53;7.30;;;3.20;;
57307;SDS011;43152;50.968;18.214;2022-09-13T16:20:19;6.30;;;2.90;;
57307;SDS011;43152;50.968;18.214;2022-09-13T16:22:45;8.10;;;3.30;;
57307;SDS011;43152;50.968;18.214;2022-09-13T16:25:12;9.10;;;3.50;;
57307;SDS011;43152;50.968;18.214;2022-09-13T16:27:38;7.60;;;3.30;;
57307;SDS011;43152;50.968;18.214;2022-09-13T16:30:05;6.90;;;3.40;;
57307;SDS011;43152;50.968;18.214;2022-09-13T16:32:32;9.00;;;3.80;;
57307;SDS011;43152;50.968;18.214;2022-09-13T16:34:57;7.60;;;3.50;;
57307;SDS011;43152;50.968;18.214;2022-09-13T16:37:23;8.30;;;3.50;;
57307;SDS011;43152;50.968;18.214;2022-09-13T16:39:48;8.00;;;3.50;;
57307;SDS011;43152;50.968;18.214;2022-09-13T16:42:14;7.20;;;3.40;;
57307;SDS011;43152;50.968;18.214;2022-09-13T16:44:42;7.30;;;3.50;;
57307;SDS011;43152;50.968;18.214;2022-09-13T16:47:08;7.60;;;3.70;;
57307;SDS011;43152;50.968;18.214;2022-09-13T16:49:34;7.20;;;3.70;;
57307;SDS011;43152;50.968;18.214;2022-09-13T16:52:00;9.50;;;3.60;;
57307;SDS011;43152;50.968;18.214;2022-09-13T16:54:27;9.60;;;3.80;;
57307;SDS011;43152;50.968;18.214;2022-09-13T16:56:59;10.00;;;4.40;;
57307;SDS011;43152;50.968;18.214;2022-09-13T16:59:29;7.90;;;3.90;;
57307;SDS011;43152;50.968;18.214;2022-09-13T17:01:55;8.10;;;3.70;;
57307;SDS011;43152;50.968;18.214;2022-09-13T17:04:23;9.50;;;4.00;;
57307;SDS011;43152;50.968;18.214;2022-09-13T17:06:50;8.60;;;3.50;;
57307;SDS011;43152;50.968;18.214;2022-09-13T17:09:15;9.00;;;3.60;;
57307;SDS011;43152;50.968;18.214;2022-09-13T17:11:42;8.40;;;4.00;;
57307;SDS011;43152;50.968;18.214;2022-09-13T17:14:10;8.10;;;3.90;;
57307;SDS011;43152;50.968;18.214;2022-09-13T17:16:40;9.10;;;4.20;;
57307;SDS011;43152;50.968;18.214;2022-09-13T17:19:11;8.90;;;4.20;;
57307;SDS011;43152;50.968;18.214;2022-09-13T17:21:42;8.00;;;3.80;;
57307;SDS011;43152;50.968;18.214;2022-09-13T17:24:09;8.60;;;4.10;;
57307;SDS011;43152;50.968;18.214;2022-09-13T17:26:35;7.90;;;3.60;;
57307;SDS011;43152;50.968;18.214;2022-09-13T17:29:01;7.30;;;3.70;;
57307;SDS011;43152;50.968;18.214;2022-09-13T17:31:26;7.80;;;4.00;;
57307;SDS011;43152;50.968;18.214;2022-09-13T17:33:55;7.90;;;3.80;;
57307;SDS011;43152;50.968;18.214;2022-09-13T17:36:20;8.50;;;4.50;;
57307;SDS011;43152;50.968;18.214;2022-09-13T17:38:46;9.60;;;4.30;;
57307;SDS011;43152;50.968;18.214;2022-09-13T17:41:13;8.80;;;4.50;;
57307;SDS011;43152;50.968;18.214;2022-09-13T17:43:42;9.30;;;4.40;;
57307;SDS011;43152;50.968;18.214;2022-09-13T17:46:11;9.20;;;4.50;;
57307;SDS011;43152;50.968;18.214;2022-09-13T17:48:39;8.80;;;4.20;;
57307;SDS011;43152;50.968;18.214;2022-09-13T17:51:09;9.80;;;4.70;;
57307;SDS011;43152;50.968;18.214;2022-09-13T17:53:41;9.40;;;4.40;;
57307;SDS011;43152;50.968;18.214;2022-09-13T17:56:09;9.90;;;4.70;;
57307;SDS011;43152;50.968;18.214;2022-09-13T17:58:35;10.00;;;4.80;;
57307;SDS011;43152;50.968;18.214;2022-09-13T18:01:04;8.90;;;4.70;;
57307;SDS011;43152;50.968;18.214;2022-09-13T18:03:31;9.30;;;4.60;;
57307;SDS011;43152;50.968;18.214;2022-09-13T18:05:58;9.40;;;4.10;;
57307;SDS011;43152;50.968;18.214;2022-09-13T18:08:25;8.90;;;4.40;;